aviador You're here:

KOAK Decoded Metar

OAKLAND in CA, USA
Report Time2017-11-23 19:53:00
UTC Time2017-11-23 20:07:18
Flight Rules vfr VFR
Wind230° at 03 kt
W.Decomp.*RWY 27: 1.7 kt HW 2.5 kt LCW
RWY 15: 1.3 kt HW 2.7 kt RCW
RWY 29: 0.7 kt HW 2.9 kt LCW
W.Rank230° ranks 10
Current wind is below 230° avg. (7.0)
Visibility9999 m
Phenomena:N/A
Clouds:Scattered 110 Hf
Broken 200 Hf
Expected CloudBase > 1,200 ft AGL from Temp-Dew spread
Ceiling20,000 ft
Temp17°C (ISA +2)
Dew Point14°C (83% RH)
QNH1020 hPa
Density Alt318 ft
Elevation85 ft
Report Wrong Elevation
Raw Report
METAR KOAK 231953Z 23003KT 10SM SCT110 BKN200 17/14 A3013 RMK AO2 SLP201
T01670139=

Extra information for KOAK:More info

Metar Taf Metar & Taf Last 4 Metars F.Rules Stats Wind Profile Meteogram Temp Stats Airport Information Weather charts Add Link Nearby VenuesMetar ALERT Operation Metar Decoded Social comments

AIRNAV info for KOAK